• Join FlightAware (Why Join?)
  • Login
  • US Flag 
06:07PM EDT


 

Airport Tracker/Info


-or-


 

Live Flight TrackerFlight Track Log ✈ AAL1261 ✈ 15-Jul-2013 ✈ KDCA - KMIA

Flight Track Log - Related Links

Times and Time Zones

All times are in EDT time to prevent confusion due to time zone crossing. See the AAL1261 flight status page for this flight to view local times or setup timezone preferences in your user account.

Time Position Orientation Groundspeed Altitude Reporting Facility
EDT Latitude Longitude Course Direction KTS MPH feet Rate Location/Type
08:58PM 38.8833 -77.0500 169° South 160 184 1,300  Level Potomac TRACON
08:59PM 38.9000 -77.0833 303° West 177 204 2,900 1,680 Climbing Potomac TRACON
09:00PM 38.5679 -76.7345 142° Southeast  Level FlightAware Approximate
09:00PM 38.9500 -77.1500 314° West 245 282 4,700  Level Potomac TRACON
09:01PM 38.4502 -76.7000 171° South  Level FlightAware Approximate
09:01PM 39.0167 -77.1833 339° North 268 308 7,500  Level Potomac TRACON
09:02PM 38.3398 -76.6833 180° South  Level FlightAware Approximate
09:02PM 39.0667 -77.1333 38° Northeast 284 327 9,900  Level Potomac TRACON
09:03PM 38.2175 -76.6669 169° South  Level FlightAware Approximate
09:04PM 38.9283 -76.9844 140° Southeast 350 403 14,100  Level Washington Center
09:05PM 38.8353 -76.9189 151° Southeast 363 418 16,800 2,460 Climbing Washington Center
09:06PM 38.7358 -76.8478 151° Southeast 381 438 19,000 1,080 Climbing Washington Center
09:07PM 38.6322 -76.7797 153° Southeast 404 465 19,000 600 Level Washington Center
09:08PM 38.5286 -76.7222 157° South 404 465 20,300 1,800 Climbing Washington Center
09:09PM 38.4078 -76.7044 173° South 411 473 22,700 2,040 Climbing Washington Center
09:10PM 38.2767 -76.6842 173° South 428 493 24,500 1,800 Climbing Washington Center
09:11PM 38.1517 -76.6692 175° South 439 505 26,400 1,860 Climbing Washington Center
09:12PM 38.0289 -76.6542 175° South 450 518 28,200 1,740 Climbing Washington Center
09:13PM 37.8975 -76.6364 174° South 461 531 29,900 1,920 Climbing Washington Center
09:14PM 37.7683 -76.6189 174° South 466 536 32,200 2,100 Climbing Washington Center
09:15PM 37.6433 -76.6017 174° South 461 531 34,100 1,740 Climbing Washington Center
09:17PM 37.3933 -76.5694 174° South 461 531 37,400 1,500 Climbing Washington Center
09:18PM 37.2683 -76.5522 174° South 461 531 38,800 1,260 Climbing Washington Center
09:19PM 37.1453 -76.5378 175° South 456 525 40,000 600 Climbing Washington Center
09:20PM 37.0244 -76.5233 175° South 451 519 40,000  Level Washington Center
09:21PM 36.9033 -76.5347 184° South 446 513 40,000  Level Washington Center
09:22PM 36.7842 -76.5800 197° South 438 504 40,000  Level Washington Center
09:23PM 36.6775 -76.6228 198° South 443 510 40,000  Level Washington Center
09:24PM 36.5603 -76.6678 197° South 449 517 40,000  Level Washington Center
09:25PM 36.4408 -76.7100 196° South 449 517 40,000  Level Washington Center
09:26PM 36.3172 -76.7544 196° South 454 522 40,000  Level Washington Center
09:27PM 36.1958 -76.7992 197° South 460 529 40,000  Level Washington Center
09:28PM 36.0764 -76.8436 197° South 460 529 40,000  Level Washington Center
09:29PM 35.9550 -76.8853 196° South 460 529 40,000  Level Washington Center
09:30PM 35.8356 -76.9294 197° South 460 529 40,000 -60 Level Washington Center
09:31PM 35.7119 -76.9683 194° South 460 529 39,900  Descending Washington Center
09:32PM 35.5967 -77.0150 198° South 455 524 40,000  Climbing Washington Center
09:33PM 35.4753 -77.0561 195° South 455 524 40,000  Level Washington Center
09:34PM 35.3536 -77.0997 196° South 455 524 40,000  Level Washington Center
09:35PM 35.2322 -77.1431 196° South 460 529 40,000  Level Washington Center
09:36PM 35.1106 -77.1867 196° South 460 529 40,000  Level Washington Center
09:37PM 34.9931 -77.2275 196° South 460 529 40,000  Level Washington Center
09:38PM 34.8717 -77.2706 196° South 455 524 40,000  Level Washington Center
09:39PM 34.7583 -77.3136 197° South 454 522 40,000 -60 Level Washington Center
09:40PM 34.6386 -77.3539 195° South 448 516 39,900  Descending Washington Center
09:41PM 34.5192 -77.3969 197° South 448 516 40,000  Climbing Washington Center
09:42PM 34.3997 -77.4394 196° South 448 516 40,000 -60 Level Washington Center
09:43PM 34.2800 -77.4794 195° South 448 516 39,900  Descending Washington Center
09:45PM 34.0100 -77.5717 196° South 444 511 40,000  Climbing Jacksonville Center
09:46PM 33.8864 -77.6117 195° South 454 522 40,000  Level Jacksonville Center
09:47PM 33.7633 -77.6567 197° South 460 529 40,000 -60 Level Jacksonville Center
09:48PM 33.6378 -77.6992 196° South 466 536 39,900 -60 Descending Jacksonville Center
09:49PM 33.5286 -77.7353 195° South 466 536 39,900  Level Jacksonville Center
09:50PM 33.4053 -77.7797 197° South 466 536 40,000  Climbing Jacksonville Center
09:51PM 33.2817 -77.8217 196° South 466 536 39,900  Descending Jacksonville Center
09:52PM 33.1581 -77.8633 196° South 466 536 40,000  Climbing Jacksonville Center
09:53PM 33.0347 -77.9050 196° South 466 536 40,000  Level Jacksonville Center
09:54PM 32.9108 -77.9442 195° South 466 536 40,000  Level Jacksonville Center
09:55PM 32.7894 -77.9878 197° South 466 536 40,000  Level Jacksonville Center
09:56PM 32.6658 -78.0292 196° South 466 536 40,000 -60 Level Jacksonville Center
09:57PM 32.5464 -78.0675 195° South 461 531 39,900 -60 Descending Jacksonville Center
09:58PM 32.4247 -78.1083 196° South 461 531 39,900  Level Jacksonville Center
09:59PM 32.3053 -78.1492 196° South 456 525 40,000  Climbing Jacksonville Center
10:00PM 32.1856 -78.1897 196° South 450 518 40,000 -60 Level Jacksonville Center
10:01PM 32.0639 -78.2278 195° South 450 518 39,900 -60 Descending Jacksonville Center
10:02PM 31.9342 -78.2736 197° South 450 518 39,900  Level Jacksonville Center
10:03PM 31.8106 -78.3164 196° South 456 525 40,000  Climbing Jacksonville Center
10:04PM 31.6886 -78.3567 196° South 456 525 39,900  Descending Jacksonville Center
10:05PM 31.5669 -78.3942 195° South 453 521 40,000  Climbing Jacksonville Center
10:06PM 31.4472 -78.4339 196° South 453 521 40,000  Level Jacksonville Center
10:07PM 31.3256 -78.4739 196° South 453 521 40,000  Level Jacksonville Center
10:08PM 31.2036 -78.5136 196° South 453 521 40,000 -60 Level Jacksonville Center
10:09PM 31.0797 -78.5533 195° South 453 521 39,900  Descending Jacksonville Center
10:10PM 30.9539 -78.5931 195° South 462 532 40,000  Climbing Jacksonville Center
10:11PM 30.8319 -78.6347 196° South 467 537 40,000  Level Jacksonville Center
10:12PM 30.6250 -78.6992 195° South 464 534 40,000  Level Miami Center
10:13PM 30.5017 -78.7211 189° South 457 526 40,000 -60 Level Miami Center
10:14PM 30.3681 -78.7428 188° South 463 533 39,900  Descending Miami Center
10:15PM 30.2511 -78.7622 188° South 457 526 40,000  Climbing Miami Center
10:16PM 30.1278 -78.7842 189° South 457 526 40,000  Level Miami Center
10:17PM 30.0147 -78.8061 190° South 452 520 40,000  Level Miami Center
10:18PM 29.8978 -78.8303 190° South 443 510 40,000  Level Miami Center
10:19PM 29.7786 -78.8544 190° South 445 512 40,000  Level Miami Center
10:20PM 29.6492 -78.8664 185° South 451 519 40,000  Level Miami Center
10:21PM 29.5258 -78.8808 186° South 460 529 40,000  Level Miami Center
10:22PM 29.4025 -78.8975 187° South 455 524 40,000 -300 Level Miami Center
10:23PM 29.2792 -78.9142 187° South 456 525 39,500 -720 Descending Miami Center
10:24PM 29.1539 -78.9308 187° South 461 531 38,600 -960 Descending Miami Center
10:25PM 29.0325 -78.9453 186° South 456 525 37,600 -960 Descending Miami Center
10:26PM 28.9072 -78.9642 188° South 456 525 36,700 -960 Descending Miami Center
10:27PM 28.7797 -78.9783 186° South 456 525 35,700 -960 Descending Miami Center
10:28PM 28.6542 -78.9950 187° South 461 531 34,800 -960 Descending Miami Center
10:29PM 28.5244 -79.0114 186° South 468 539 33,800 -1,020 Descending Miami Center
10:30PM 28.4011 -79.0303 188° South 463 533 32,800 -960 Descending Miami Center
10:31PM 28.2756 -79.0561 190° South 463 533 31,900 -900 Descending Miami Center
10:32PM 28.1517 -79.0914 194° South 468 539 31,100 -1,200 Descending Miami Center
10:33PM 28.0469 -79.1269 197° South 437 503 29,500 -1,560 Descending Miami Center
10:34PM 27.9397 -79.1600 195° South 412 474 28,000 -780 Descending Miami Center
10:35PM 27.8264 -79.1953 195° South 393 452 28,000 -240 Level Miami Center
10:36PM 27.7217 -79.2283 196° South 393 452 27,600 -900 Descending Miami Center
10:37PM 27.6167 -79.2592 195° South 398 458 26,200 -1,080 Descending Miami Center
10:38PM 27.5244 -79.2875 195° South 398 458 25,500 -600 Descending Miami Center
10:39PM 27.4236 -79.3183 195° South 392 451 25,000 -480 Descending Miami Center
10:40PM 27.2997 -79.3553 195° South 404 465 24,600 -540 Descending Miami Center
10:41PM 27.1864 -79.3925 196° South 428 493 24,000 -900 Descending Miami Center
10:42PM 27.0789 -79.4461 204° Southwest 434 499 22,800 -1,260 Descending Miami Center
10:43PM 26.9800 -79.4906 202° Southwest 417 480 21,500 -1,260 Descending Miami Center
10:44PM 26.8725 -79.5417 203° Southwest 417 480 20,300 -1,320 Descending Miami Center
10:45PM 26.7567 -79.5950 202° Southwest 422 486 18,900 -1,440 Descending Miami Center
10:46PM 26.6975 -79.6239 204° Southwest 402 463 18,100 -1,320 Descending Miami Center
10:47PM 26.5900 -79.6747 203° Southwest 392 451 16,800 -1,140 Descending Miami Center
10:48PM 26.4889 -79.7233 203° Southwest 384 442 15,900 -420 Descending Miami Center
10:49PM 26.4203 -79.8122 229° Southwest 386 444 16,000 -960 Climbing Miami Center
10:50PM 26.3558 -79.9033 232° Southwest 377 434 14,000 -2,160 Descending Miami Center
10:51PM 26.2808 -79.9825 223° Southwest 365 420 11,700 -2,040 Descending Miami Center
10:52PM 26.1922 -80.0333 207° Southwest 341 392 9,900 -900 Descending Miami Center
10:53PM 26.0911 -80.0608 194° South 340 391 9,900 -240 Level Miami Center
10:54PM 26.0072 -80.0839 194° South 288 331 9,400 -600 Descending Miami Center
10:55PM 25.9433 -80.1308 213° Southwest 296 341 8,700 -660 Descending Miami Center
10:56PM 25.9039 -80.2175 243° Southwest 289 333 8,000 -660 Descending Miami Center
10:57PM 25.8811 -80.2975 252° West 262 302 7,400 -1,140 Descending Miami Center
10:58PM 25.8775 -80.3644 267° West 240 276 6,000 -1,800 Descending Miami Center
10:59PM 25.8714 -80.4428 265° West 248 285 4,200 -1,500 Descending Miami Center
11:00PM 25.8425 -80.5111 245° Southwest 224 258 2,900 -600 Descending Miami Center
11:01PM 25.7842 -80.5094 179° South 207 238 3,000 60 Climbing Miami Center